createdAt,value
2019-05-26T00:03:38.519Z,8.37
2019-05-26T00:09:03.907Z,7.83
2019-05-26T00:14:27.029Z,10.90
2019-05-26T00:19:51.137Z,9.53
2019-05-26T00:25:14.961Z,7.45
2019-05-26T00:30:39.254Z,6.13
2019-05-26T00:36:03.441Z,8.77
2019-05-26T00:41:26.774Z,9.60
2019-05-26T00:46:51.020Z,8.57
2019-05-26T00:52:14.501Z,9.27
2019-05-26T00:57:38.600Z,8.07
2019-05-26T01:03:02.706Z,8.43
2019-05-26T01:08:26.811Z,8.10
2019-05-26T01:13:50.956Z,8.07
2019-05-26T01:19:14.699Z,6.73
2019-05-26T01:24:38.790Z,9.13
2019-05-26T01:30:02.588Z,6.90
2019-05-26T01:35:27.304Z,6.97
2019-05-26T01:41:01.236Z,7.03
2019-05-26T01:46:25.351Z,12.30
2019-05-26T01:51:49.246Z,8.60
2019-05-26T01:57:13.244Z,9.37
2019-05-26T02:02:37.344Z,11.63
2019-05-26T02:08:01.433Z,7.33
2019-05-26T02:13:24.613Z,7.63
2019-05-26T02:18:48.409Z,9.20
2019-05-26T02:24:11.890Z,6.33
2019-05-26T02:29:35.386Z,7.87
2019-05-26T02:34:59.386Z,7.23
2019-05-26T02:40:25.237Z,9.93
2019-05-26T02:45:49.727Z,8.27
2019-05-26T02:51:14.388Z,11.43
2019-05-26T02:56:38.236Z,8.00
2019-05-26T03:02:04.580Z,9.13
2019-05-26T03:07:27.990Z,8.10
2019-05-26T03:12:54.531Z,8.85
2019-05-26T03:18:19.285Z,6.60
2019-05-26T03:23:45.064Z,10.03
2019-05-26T03:29:08.996Z,10.10
2019-05-26T03:34:33.095Z,7.17
2019-05-26T03:39:57.186Z,6.40
2019-05-26T03:45:26.516Z,8.67
2019-05-26T03:50:50.607Z,11.70
2019-05-26T03:56:14.719Z,11.73
2019-05-26T04:01:38.822Z,9.93
2019-05-26T04:07:02.926Z,5.80
2019-05-26T04:12:28.751Z,8.97
2019-05-26T04:17:52.654Z,7.73
2019-05-26T04:23:16.755Z,10.57
2019-05-26T04:28:40.935Z,7.53
2019-05-26T04:34:05.168Z,12.70
2019-05-26T04:39:29.263Z,10.47
2019-05-26T04:44:53.061Z,11.67
2019-05-26T04:50:16.874Z,9.57
2019-05-26T04:55:40.650Z,9.90
2019-05-26T05:01:04.444Z,9.43
2019-05-26T05:06:28.544Z,7.03
2019-05-26T05:11:51.022Z,11.20
2019-05-26T05:17:15.206Z,11.67
2019-05-26T05:22:39.304Z,8.57
2019-05-26T05:28:03.402Z,7.63
2019-05-26T05:33:27.101Z,8.93
2019-05-26T05:38:51.200Z,8.90
2019-05-26T05:44:15.329Z,8.63
2019-05-26T05:49:39.433Z,10.80
2019-05-26T05:55:02.885Z,9.57
2019-05-26T06:00:26.987Z,9.57
2019-05-26T06:05:51.089Z,9.57
2019-05-26T06:11:16.965Z,9.67
2019-05-26T06:16:42.362Z,10.30
2019-05-26T06:22:06.165Z,8.57
2019-05-26T06:27:29.883Z,8.77
2019-05-26T06:32:53.208Z,12.70
2019-05-26T06:38:17.333Z,10.10
2019-05-26T06:43:42.971Z,13.73
2019-05-26T06:49:09.220Z,10.87
2019-05-26T06:54:34.958Z,8.87
2019-05-26T06:59:58.962Z,10.50
2019-05-26T07:05:22.446Z,10.83
2019-05-26T07:10:46.248Z,11.07
2019-05-26T07:16:12.463Z,12.73
2019-05-26T07:21:38.437Z,9.37
2019-05-26T07:27:04.087Z,6.30
2019-05-26T07:32:28.826Z,9.43
2019-05-26T07:37:54.450Z,5.67
2019-05-26T07:43:20.091Z,8.23
2019-05-26T07:48:45.714Z,8.07
2019-05-26T07:54:24.533Z,6.90
2019-05-26T07:59:39.150Z,5.20
2019-05-26T08:05:04.784Z,8.17
2019-05-26T08:10:31.945Z,7.23
2019-05-26T08:15:56.829Z,6.67
2019-05-26T08:21:22.313Z,5.77
2019-05-26T08:26:47.945Z,6.87
2019-05-26T08:32:15.024Z,7.87
2019-05-26T08:37:40.740Z,7.53
2019-05-26T08:43:07.280Z,5.67
2019-05-26T08:48:32.921Z,6.33
2019-05-26T08:53:57.826Z,8.57
2019-05-26T08:59:23.267Z,6.00
2019-05-26T09:04:47.993Z,4.93
2019-05-26T09:10:14.265Z,2.73
2019-05-26T09:15:39.260Z,7.77
2019-05-26T09:21:03.979Z,3.60
2019-05-26T09:26:29.637Z,2.87
2019-05-26T09:31:55.362Z,8.10
2019-05-26T09:37:20.989Z,4.83
2019-05-26T09:42:46.688Z,4.67
2019-05-26T09:48:12.500Z,3.73
2019-05-26T09:53:38.213Z,5.57
2019-05-26T09:59:03.874Z,5.03
2019-05-26T10:04:29.183Z,2.03
2019-05-26T10:09:53.905Z,4.03
2019-05-26T10:15:20.448Z,3.60
2019-05-26T10:20:45.501Z,7.47
2019-05-26T10:26:10.828Z,3.97
2019-05-26T10:31:36.260Z,5.40
2019-05-26T10:37:01.896Z,3.43
2019-05-26T10:42:26.930Z,5.30
2019-05-26T10:47:52.557Z,3.40
2019-05-26T10:53:18.494Z,2.63
2019-05-26T10:58:44.141Z,4.60
2019-05-26T11:04:09.465Z,2.50
2019-05-26T11:09:35.102Z,4.00
2019-05-26T11:15:00.134Z,4.20
2019-05-26T11:20:26.376Z,2.60
2019-05-26T11:25:51.982Z,1.63
2019-05-26T11:31:17.519Z,5.23
2019-05-26T11:36:43.153Z,3.13
2019-05-26T11:42:13.400Z,2.40
2019-05-26T11:47:31.965Z,6.50
2019-05-26T11:52:56.381Z,3.67
2019-05-26T11:58:19.321Z,4.47
2019-05-26T12:03:42.739Z,4.53
2019-05-26T12:09:06.529Z,2.67
2019-05-26T12:14:34.660Z,3.43
2019-05-26T12:19:54.444Z,2.50
2019-05-26T12:25:21.195Z,5.60
2019-05-26T12:30:45.705Z,4.37
2019-05-26T12:36:11.340Z,4.67
2019-05-26T12:41:37.387Z,3.53
2019-05-26T12:47:00.772Z,2.17
2019-05-26T12:52:24.969Z,3.80
2019-05-26T12:57:48.966Z,4.00
2019-05-26T13:03:12.269Z,4.83
2019-05-26T13:08:36.595Z,3.30
2019-05-26T13:14:00.148Z,4.37
2019-05-26T13:19:23.801Z,4.40
2019-05-26T13:24:47.976Z,6.67
2019-05-26T13:30:16.689Z,3.77
2019-05-26T13:35:39.420Z,2.97
2019-05-26T13:41:03.403Z,4.27
2019-05-26T13:46:26.555Z,2.87
2019-05-26T13:51:50.727Z,2.53
2019-05-26T13:57:14.494Z,2.47
2019-05-26T14:02:37.545Z,3.03
2019-05-26T14:08:00.980Z,3.23
2019-05-26T14:13:26.019Z,2.60
2019-05-26T14:18:49.436Z,3.47
2019-05-26T14:24:13.955Z,2.60
2019-05-26T14:29:38.059Z,4.87
2019-05-26T14:35:02.825Z,4.87
2019-05-26T14:40:30.262Z,6.00
2019-05-26T14:45:54.667Z,3.77
2019-05-26T14:51:18.769Z,2.77
2019-05-26T14:56:42.567Z,2.73
2019-05-26T15:02:06.665Z,5.97
2019-05-26T15:07:29.529Z,7.00
2019-05-26T15:12:52.877Z,4.97
2019-05-26T15:18:16.191Z,3.67
2019-05-26T15:23:39.378Z,3.83
2019-05-26T15:29:03.480Z,3.80
2019-05-26T15:34:27.192Z,3.73
2019-05-26T15:39:51.688Z,4.03
2019-05-26T15:45:14.864Z,2.40
2019-05-26T15:50:37.962Z,6.30
2019-05-26T15:56:02.069Z,3.97
2019-05-26T16:01:26.139Z,2.63
2019-05-26T16:06:49.476Z,3.17
2019-05-26T16:12:13.106Z,3.93
2019-05-26T16:17:38.859Z,2.90
2019-05-26T16:23:02.097Z,4.17
2019-05-26T16:28:24.691Z,2.83
2019-05-26T16:33:48.588Z,3.63
2019-05-26T16:39:12.145Z,4.30
2019-05-26T16:44:36.224Z,3.23
2019-05-26T16:50:00.281Z,2.50
2019-05-26T16:55:24.384Z,2.80
2019-05-26T17:00:48.184Z,2.00
2019-05-26T17:06:11.356Z,4.43
2019-05-26T17:11:37.182Z,3.17
2019-05-26T17:17:14.240Z,3.30
2019-05-26T17:22:33.876Z,2.93
2019-05-26T17:28:01.740Z,3.00
2019-05-26T17:33:25.105Z,3.00
2019-05-26T17:38:48.967Z,8.13
2019-05-26T17:44:12.999Z,3.00
2019-05-26T17:49:36.400Z,3.73
2019-05-26T17:55:03.469Z,4.07
2019-05-26T18:00:30.288Z,3.93
2019-05-26T18:05:54.385Z,7.57
2019-05-26T18:11:17.767Z,6.17
2019-05-26T18:16:41.673Z,3.43
2019-05-26T18:22:05.155Z,9.17
2019-05-26T18:27:28.976Z,4.43
2019-05-26T18:32:50.845Z,2.77
2019-05-26T18:38:12.662Z,7.57
2019-05-26T18:43:37.524Z,5.93
2019-05-26T18:48:59.368Z,3.17
2019-05-26T18:54:21.118Z,4.53
2019-05-26T18:59:43.666Z,6.70
2019-05-26T19:05:05.450Z,3.03
2019-05-26T19:10:27.604Z,4.37
2019-05-26T19:15:51.123Z,7.93
2019-05-26T19:21:12.928Z,3.17
2019-05-26T19:26:40.779Z,4.00
2019-05-26T19:32:02.601Z,6.13
2019-05-26T19:37:24.523Z,5.87
2019-05-26T19:42:47.845Z,4.17
2019-05-26T19:48:09.793Z,4.03
2019-05-26T19:53:31.585Z,3.80
2019-05-26T19:59:01.759Z,4.87
2019-05-26T20:04:23.653Z,5.73
2019-05-26T20:09:45.521Z,3.83
2019-05-26T20:15:08.909Z,3.17
2019-05-26T20:20:31.094Z,6.00
2019-05-26T20:25:52.826Z,5.57
2019-05-26T20:31:14.572Z,7.67
2019-05-26T20:36:36.327Z,5.47
2019-05-26T20:41:58.042Z,6.67
2019-05-26T20:47:19.801Z,5.83
2019-05-26T20:52:42.353Z,5.93
2019-05-26T20:58:04.143Z,8.50
2019-05-26T21:03:25.858Z,4.23
2019-05-26T21:08:47.619Z,5.87
2019-05-26T21:14:09.508Z,10.83
2019-05-26T21:19:32.050Z,6.20
2019-05-26T21:24:53.808Z,4.47
2019-05-26T21:30:17.446Z,8.87
2019-05-26T21:35:39.261Z,5.33
2019-05-26T21:41:01.063Z,5.30
2019-05-26T21:46:23.130Z,5.57
2019-05-26T21:51:44.891Z,7.30
2019-05-26T21:57:06.648Z,6.63
2019-05-26T22:02:28.349Z,6.90
2019-05-26T22:07:50.032Z,5.50
2019-05-26T22:13:11.741Z,4.80
2019-05-26T22:18:33.483Z,5.43
2019-05-26T22:23:55.199Z,10.27
2019-05-26T22:29:16.994Z,6.37
2019-05-26T22:34:38.744Z,5.80
2019-05-26T22:40:00.467Z,7.53
2019-05-26T22:45:24.095Z,7.70
2019-05-26T22:50:45.795Z,9.50
2019-05-26T22:56:07.588Z,4.60
2019-05-26T23:01:29.757Z,6.33
2019-05-26T23:06:51.567Z,4.67
2019-05-26T23:12:13.382Z,7.03
2019-05-26T23:17:35.145Z,10.93
2019-05-26T23:22:56.851Z,5.53
2019-05-26T23:28:18.707Z,7.37
2019-05-26T23:33:40.435Z,6.83
2019-05-26T23:39:02.317Z,7.97
2019-05-26T23:44:24.045Z,7.17
2019-05-26T23:49:45.792Z,5.37
2019-05-26T23:55:07.513Z,6.67
